createdAt,value
2019-03-13T00:02:27.502Z,97267.44
2019-03-13T00:04:56.965Z,97276.69
2019-03-13T00:07:27.193Z,97271.09
2019-03-13T00:09:56.454Z,97265.24
2019-03-13T00:12:25.896Z,97272.73
2019-03-13T00:14:55.151Z,97246.05
2019-03-13T00:17:24.390Z,97235.31
2019-03-13T00:19:53.663Z,97247.89
2019-03-13T00:22:23.735Z,97250.72
2019-03-13T00:24:56.098Z,97246.66
2019-03-13T00:27:24.302Z,97264.72
2019-03-13T00:29:53.577Z,97235.08
2019-03-13T00:32:22.830Z,97230.22
2019-03-13T00:34:52.092Z,97234.89
2019-03-13T00:37:24.418Z,97185.57
2019-03-13T00:39:54.756Z,97197.84
2019-03-13T00:42:23.979Z,97217.22
2019-03-13T00:44:53.261Z,97205.03
2019-03-13T00:47:22.490Z,97212.61
2019-03-13T00:49:51.741Z,97204.11
2019-03-13T00:52:22.445Z,97194.00
2019-03-13T00:54:51.692Z,97181.91
2019-03-13T00:57:20.930Z,97184.05
2019-03-13T00:59:50.988Z,97185.19
2019-03-13T01:02:33.864Z,97188.40
2019-03-13T01:05:10.382Z,97177.34
2019-03-13T01:07:41.497Z,97180.59
2019-03-13T01:10:12.960Z,97181.09
2019-03-13T01:12:42.182Z,97168.52
2019-03-13T01:15:14.257Z,97166.19
2019-03-13T01:17:43.522Z,97175.00
2019-03-13T01:20:13.496Z,97169.02
2019-03-13T01:22:42.727Z,97157.64
2019-03-13T01:25:12.287Z,97155.69
2019-03-13T01:27:41.530Z,97154.29
2019-03-13T01:30:14.934Z,97153.08
2019-03-13T01:32:55.505Z,97173.37
2019-03-13T01:35:36.740Z,97170.31
2019-03-13T01:38:05.971Z,97180.86
2019-03-13T01:40:36.189Z,97185.72
2019-03-13T01:43:05.421Z,97198.31
2019-03-13T01:45:34.664Z,97200.73
2019-03-13T01:48:03.917Z,97194.93
2019-03-13T01:50:33.168Z,97188.97
2019-03-13T01:53:04.841Z,97190.78
2019-03-13T01:55:34.519Z,97187.36
2019-03-13T01:58:03.751Z,97192.10
2019-03-13T02:00:33.182Z,97193.73
2019-03-13T02:03:02.435Z,97209.99
2019-03-13T02:05:31.681Z,97197.48
2019-03-13T02:08:00.921Z,97187.54
2019-03-13T02:10:30.931Z,97178.83
2019-03-13T02:13:03.060Z,97186.67
2019-03-13T02:15:32.291Z,97194.19
2019-03-13T02:18:01.545Z,97188.59
2019-03-13T02:20:30.815Z,97176.40
2019-03-13T02:23:00.201Z,97168.41
2019-03-13T02:25:29.412Z,97176.34
2019-03-13T02:27:59.058Z,97181.02
2019-03-13T02:30:29.679Z,97177.27
2019-03-13T02:32:58.926Z,97180.30
2019-03-13T02:35:28.172Z,97185.50
2019-03-13T02:37:57.426Z,97187.92
2019-03-13T02:40:26.980Z,97203.33
2019-03-13T02:42:56.228Z,97196.45
2019-03-13T02:45:25.444Z,97204.03
2019-03-13T02:47:54.706Z,97199.47
2019-03-13T02:50:25.184Z,97200.81
2019-03-13T02:52:54.443Z,97198.48
2019-03-13T02:55:23.679Z,97211.48
2019-03-13T02:57:52.920Z,97210.44
2019-03-13T03:00:31.036Z,97213.88
2019-03-13T03:03:02.079Z,97213.27
2019-03-13T03:05:31.308Z,97235.69
2019-03-13T03:08:00.572Z,97227.27
2019-03-13T03:10:29.823Z,97228.80
2019-03-13T03:12:59.153Z,97243.51
2019-03-13T03:15:28.772Z,97232.52
2019-03-13T03:17:58.035Z,97229.14
2019-03-13T03:20:27.278Z,97236.03
2019-03-13T03:22:56.524Z,97226.16
2019-03-13T03:25:25.821Z,97222.12
2019-03-13T03:27:55.088Z,97215.12
2019-03-13T03:30:25.132Z,97230.17
2019-03-13T03:32:54.379Z,97233.54
2019-03-13T03:35:25.078Z,97250.88
2019-03-13T03:37:54.334Z,97259.59
2019-03-13T03:40:23.880Z,97269.12
2019-03-13T03:42:53.206Z,97265.75
2019-03-13T03:45:22.430Z,97272.54
2019-03-13T03:47:51.678Z,97274.84
2019-03-13T03:50:20.908Z,97275.45
2019-03-13T03:52:51.241Z,97279.06
2019-03-13T03:55:20.476Z,97287.17
2019-03-13T03:57:49.743Z,97291.23
2019-03-13T04:00:19.193Z,97316.63
2019-03-13T04:02:48.581Z,97306.38
2019-03-13T04:05:17.822Z,97314.41
2019-03-13T04:07:47.098Z,97327.11
2019-03-13T04:10:16.310Z,97344.50
2019-03-13T04:12:45.579Z,97346.16
2019-03-13T04:15:17.245Z,97368.49
2019-03-13T04:17:46.711Z,97369.72
2019-03-13T04:20:15.981Z,97364.45
2019-03-13T04:22:45.637Z,97369.80
2019-03-13T04:25:30.007Z,97362.16
2019-03-13T04:27:59.276Z,97356.17
2019-03-13T04:30:28.511Z,97382.27
2019-03-13T04:32:57.771Z,97383.48
2019-03-13T04:35:27.009Z,97410.62
2019-03-13T04:37:56.280Z,97413.56
2019-03-13T04:40:25.517Z,97417.19
2019-03-13T04:42:56.850Z,97420.61
2019-03-13T04:45:28.381Z,97432.37
2019-03-13T04:47:57.633Z,97437.63
2019-03-13T04:50:27.653Z,97432.88
2019-03-13T04:52:56.888Z,97443.14
2019-03-13T04:55:26.139Z,97453.50
2019-03-13T04:57:55.727Z,97464.38
2019-03-13T05:00:27.105Z,97465.80
2019-03-13T05:02:56.729Z,97458.41
2019-03-13T05:05:52.728Z,97471.13
2019-03-13T05:08:45.979Z,97460.19
2019-03-13T05:11:15.212Z,97494.60
2019-03-13T05:13:47.190Z,97506.68
2019-03-13T05:16:17.222Z,97509.11
2019-03-13T05:18:47.298Z,97506.39
2019-03-13T05:21:16.814Z,97498.75
2019-03-13T05:23:46.068Z,97514.22
2019-03-13T05:26:15.298Z,97541.46
2019-03-13T05:28:44.747Z,97546.36
2019-03-13T05:31:18.975Z,97565.89
2019-03-13T05:33:48.546Z,97567.01
2019-03-13T05:36:18.054Z,97563.32
2019-03-13T05:38:47.316Z,97554.29
2019-03-13T05:41:17.741Z,97556.34
2019-03-13T05:43:47.006Z,97582.25
2019-03-13T05:46:16.290Z,97591.81
2019-03-13T05:48:45.524Z,97592.02
2019-03-13T05:51:14.797Z,97600.27
2019-03-13T05:53:44.035Z,97602.00
2019-03-13T05:56:13.278Z,97598.75
2019-03-13T05:58:42.504Z,97602.70
2019-03-13T06:01:12.544Z,97603.50
2019-03-13T06:03:41.771Z,97611.05
2019-03-13T06:06:11.052Z,97605.03
2019-03-13T06:08:40.278Z,97616.42
2019-03-13T06:11:10.850Z,97613.98
2019-03-13T06:13:40.085Z,97609.81
2019-03-13T06:16:09.358Z,97612.55
2019-03-13T06:18:38.592Z,97624.44
2019-03-13T06:21:07.856Z,97623.03
2019-03-13T06:23:37.086Z,97624.67
2019-03-13T06:26:06.358Z,97635.03
2019-03-13T06:28:35.600Z,97640.94
2019-03-13T06:31:04.841Z,97641.44
2019-03-13T06:33:34.055Z,97652.33
2019-03-13T06:36:03.661Z,97650.39
2019-03-13T06:38:33.198Z,97656.58
2019-03-13T06:41:05.135Z,97648.27
2019-03-13T06:43:33.678Z,97669.42
2019-03-13T06:46:05.236Z,97668.80
2019-03-13T06:48:34.474Z,97665.47
2019-03-13T06:51:04.923Z,97664.94
2019-03-13T06:53:34.142Z,97669.42
2019-03-13T06:56:03.405Z,97673.48
2019-03-13T06:58:54.572Z,97662.02
2019-03-13T07:01:33.518Z,97667.91
2019-03-13T07:04:30.761Z,97673.02
2019-03-13T07:07:24.946Z,97677.17
2019-03-13T07:10:00.439Z,97678.77
2019-03-13T07:12:37.605Z,97686.00
2019-03-13T07:15:26.243Z,97679.94
2019-03-13T07:18:00.349Z,97685.23
2019-03-13T07:20:40.821Z,97667.72
2019-03-13T07:23:28.127Z,97663.34
2019-03-13T07:26:19.375Z,97667.83
2019-03-13T07:29:12.602Z,97676.44
2019-03-13T07:31:55.132Z,97674.13
2019-03-13T07:34:31.846Z,97679.48
2019-03-13T07:37:18.575Z,97691.64
2019-03-13T07:39:54.121Z,97689.95
2019-03-13T07:42:57.391Z,97689.03
2019-03-13T07:45:44.375Z,97689.29
2019-03-13T07:48:27.076Z,97686.31
2019-03-13T07:51:13.490Z,97690.58
2019-03-13T07:54:01.714Z,97692.72
2019-03-13T07:56:52.812Z,97690.34
2019-03-13T07:59:35.722Z,97701.47
2019-03-13T08:02:15.175Z,97690.05
2019-03-13T08:04:56.145Z,97702.21
2019-03-13T08:07:57.365Z,97716.42
2019-03-13T08:10:33.024Z,97701.75
2019-03-13T08:13:10.304Z,97700.35
2019-03-13T08:16:01.236Z,97704.78
2019-03-13T08:18:49.477Z,97715.27
2019-03-13T08:21:32.701Z,97725.65
2019-03-13T08:24:18.076Z,97718.32
2019-03-13T08:26:56.757Z,97706.48
2019-03-13T08:29:43.449Z,97720.68
2019-03-13T08:32:37.811Z,97708.05
2019-03-13T08:35:19.979Z,97701.59
2019-03-13T08:38:07.329Z,97699.59
2019-03-13T08:40:41.724Z,97708.41
2019-03-13T08:43:16.689Z,97714.71
2019-03-13T08:46:14.783Z,97711.27
2019-03-13T08:49:05.795Z,97703.29
2019-03-13T08:51:40.672Z,97701.12
2019-03-13T08:54:18.501Z,97699.39
2019-03-13T08:57:21.849Z,97703.77
2019-03-13T09:00:25.293Z,97687.42
2019-03-13T09:03:25.327Z,97688.33
2019-03-13T09:06:16.464Z,97694.05
2019-03-13T09:09:08.684Z,97671.77
2019-03-13T09:12:12.018Z,97686.51
2019-03-13T09:15:05.823Z,97689.41
2019-03-13T09:18:07.928Z,97686.27
2019-03-13T09:20:58.974Z,97675.77
2019-03-13T09:23:47.177Z,97674.05
2019-03-13T09:26:44.364Z,97651.33
2019-03-13T09:29:31.473Z,97663.66
2019-03-13T09:32:33.408Z,97654.27
2019-03-13T09:35:08.526Z,97657.93
2019-03-13T09:38:01.109Z,97646.87
2019-03-13T09:40:46.042Z,97660.16
2019-03-13T09:43:28.049Z,97646.19
2019-03-13T09:46:19.475Z,97650.75
2019-03-13T09:49:14.797Z,97629.59
2019-03-13T09:51:59.560Z,97642.16
2019-03-13T09:54:55.857Z,97625.67
2019-03-13T09:57:35.291Z,97624.15
2019-03-13T10:00:28.199Z,97642.20
2019-03-13T10:03:12.310Z,97643.14
2019-03-13T10:05:59.203Z,97644.19
2019-03-13T10:08:41.261Z,97619.21
2019-03-13T10:11:35.404Z,97625.86
2019-03-13T10:14:15.073Z,97618.53
2019-03-13T10:17:10.997Z,97618.78
2019-03-13T10:19:54.730Z,97635.86
2019-03-13T10:22:51.766Z,97639.34
2019-03-13T10:25:29.749Z,97631.45
2019-03-13T10:28:19.289Z,97614.94
2019-03-13T10:31:07.485Z,97620.52
2019-03-13T10:33:41.860Z,97616.48
2019-03-13T10:36:29.515Z,97618.44
2019-03-13T10:39:13.237Z,97612.70
2019-03-13T10:42:13.273Z,97604.31
2019-03-13T10:45:02.335Z,97564.04
2019-03-13T10:48:00.680Z,97609.80
2019-03-13T10:50:51.909Z,97602.29
2019-03-13T10:53:47.509Z,97615.63
2019-03-13T10:56:36.097Z,97606.04
2019-03-13T10:59:42.557Z,97603.91
2019-03-13T11:02:36.550Z,97592.63
2019-03-13T11:05:34.285Z,97584.98
2019-03-13T11:08:23.457Z,97595.84
2019-03-13T11:11:10.327Z,97582.93
2019-03-13T11:13:51.723Z,97581.58
2019-03-13T11:16:38.650Z,97574.27
2019-03-13T11:19:24.305Z,97571.45
2019-03-13T11:22:15.467Z,97572.80
2019-03-13T11:24:55.821Z,97562.84
2019-03-13T11:27:45.828Z,97580.41
2019-03-13T11:30:26.403Z,97576.22
2019-03-13T11:52:36.892Z,97515.26
2019-03-13T11:55:28.423Z,97536.98
2019-03-13T11:58:09.593Z,97528.77
2019-03-13T12:00:59.526Z,97521.59
2019-03-13T12:03:46.395Z,97525.27
2019-03-13T12:06:35.175Z,97528.42
2019-03-13T12:09:34.416Z,97506.52
2019-03-13T12:12:21.224Z,97505.95
2019-03-13T12:15:19.666Z,97507.44
2019-03-13T12:18:13.239Z,97495.58
2019-03-13T12:21:04.358Z,97486.77
2019-03-13T12:23:47.674Z,97479.75
2019-03-13T12:26:26.344Z,97474.12
2019-03-13T12:29:14.943Z,97464.66
2019-03-13T12:32:04.631Z,97486.67
2019-03-13T12:34:47.385Z,97479.48
2019-03-13T12:37:27.284Z,97473.87
2019-03-13T12:40:16.153Z,97460.66
2019-03-13T12:43:10.541Z,97471.52
2019-03-13T12:45:47.473Z,97454.62
2019-03-13T12:48:35.675Z,97461.45
2019-03-13T12:51:24.306Z,97460.70
2019-03-13T12:54:11.436Z,97458.16
2019-03-13T12:56:59.947Z,97446.28
2019-03-13T12:59:48.134Z,97448.81
2019-03-13T13:02:32.981Z,97433.39
2019-03-13T13:05:24.652Z,97440.03
2019-03-13T13:11:21.119Z,97419.17
2019-03-13T13:13:57.296Z,97451.32
2019-03-13T13:16:41.275Z,97438.25
2019-03-13T13:19:10.970Z,97440.73
2019-03-13T13:21:40.216Z,97434.93
2019-03-13T13:24:09.809Z,97441.73
2019-03-13T13:26:39.610Z,97441.15
2019-03-13T13:29:11.148Z,97439.13
2019-03-13T13:31:40.379Z,97446.02
2019-03-13T13:34:10.112Z,97447.67
2019-03-13T13:36:42.432Z,97451.69
2019-03-13T13:39:11.681Z,97453.93
2019-03-13T13:41:42.100Z,97445.17
2019-03-13T13:44:11.816Z,97470.93
2019-03-13T13:46:44.693Z,97460.05
2019-03-13T13:49:14.371Z,97452.47
2019-03-13T13:51:43.586Z,97453.65
2019-03-13T13:54:12.866Z,97437.27
2019-03-13T13:56:43.888Z,97445.58
2019-03-13T13:59:14.273Z,97445.73
2019-03-13T14:01:44.951Z,97436.05
2019-03-13T14:04:14.206Z,97428.30
2019-03-13T14:06:43.440Z,97425.23
2019-03-13T14:09:13.138Z,97408.73
2019-03-13T14:11:43.870Z,97418.86
2019-03-13T14:14:16.212Z,97429.66
2019-03-13T14:16:45.436Z,97433.40
2019-03-13T14:19:15.057Z,97404.88
2019-03-13T14:21:45.614Z,97420.66
2019-03-13T14:24:17.263Z,97409.45
2019-03-13T14:26:46.198Z,97425.59
2019-03-13T14:29:15.468Z,97411.19
2019-03-13T14:31:44.718Z,97429.05
2019-03-13T14:34:14.547Z,97423.95
2019-03-13T14:36:43.794Z,97427.02
2019-03-13T14:39:15.403Z,97428.79
2019-03-13T14:41:44.904Z,97420.86
2019-03-13T14:44:14.138Z,97417.81
2019-03-13T14:46:46.251Z,97418.01
2019-03-13T14:49:15.473Z,97430.19
2019-03-13T14:51:44.729Z,97431.88
2019-03-13T14:54:16.229Z,97423.25
2019-03-13T14:56:45.770Z,97424.21
2019-03-13T14:59:15.013Z,97433.15
2019-03-13T15:01:44.269Z,97430.52
2019-03-13T15:04:13.790Z,97428.66
2019-03-13T15:06:45.528Z,97423.16
2019-03-13T15:09:14.754Z,97424.56
2019-03-13T15:11:44.009Z,97399.58
2019-03-13T15:14:13.716Z,97420.97
2019-03-13T15:16:42.977Z,97435.66
2019-03-13T15:19:12.520Z,97439.58
2019-03-13T15:21:41.887Z,97443.52
2019-03-13T15:24:13.181Z,97434.33
2019-03-13T15:26:42.741Z,97426.52
2019-03-13T15:29:11.997Z,97432.37
2019-03-13T15:31:53.268Z,97429.45
2019-03-13T15:34:22.503Z,97443.72
2019-03-13T15:36:52.154Z,97441.16
2019-03-13T15:39:21.399Z,97439.35
2019-03-13T15:41:51.851Z,97429.18
2019-03-13T15:44:21.096Z,97427.56
2019-03-13T15:46:50.369Z,97434.14
2019-03-13T15:49:20.888Z,97426.16
2019-03-13T15:51:50.481Z,97428.83
2019-03-13T15:54:19.757Z,97428.59
2019-03-13T15:56:49.014Z,97409.66
2019-03-13T15:59:18.245Z,97428.30
2019-03-13T16:01:47.499Z,97429.05
2019-03-13T16:04:16.726Z,97424.98
2019-03-13T16:06:46.748Z,97440.16
2019-03-13T16:09:16.640Z,97440.91
2019-03-13T16:11:48.459Z,97442.78
2019-03-13T16:14:17.710Z,97440.81
2019-03-13T16:16:49.251Z,97435.88
2019-03-13T16:19:20.710Z,97437.20
2019-03-13T16:21:49.989Z,97432.20
2019-03-13T16:24:19.217Z,97429.65
2019-03-13T16:26:48.509Z,97418.77
2019-03-13T16:29:17.733Z,97423.66
2019-03-13T16:31:47.260Z,97416.25
2019-03-13T16:34:16.495Z,97423.52
2019-03-13T16:36:46.659Z,97425.48
2019-03-13T16:39:15.892Z,97421.96
2019-03-13T16:41:45.544Z,97429.80
2019-03-13T16:44:14.897Z,97422.23
2019-03-13T16:46:44.521Z,97424.73
2019-03-13T16:49:13.737Z,97425.81
2019-03-13T16:51:45.342Z,97417.69
2019-03-13T16:54:16.033Z,97422.72
2019-03-13T16:56:45.281Z,97421.75
2019-03-13T16:59:15.400Z,97417.92
2019-03-13T17:01:45.606Z,97420.62
2019-03-13T17:04:14.839Z,97418.06
2019-03-13T17:06:44.091Z,97417.61
2019-03-13T17:09:13.327Z,97420.95
2019-03-13T17:11:52.563Z,97422.31
2019-03-13T17:14:21.814Z,97412.94
2019-03-13T17:16:51.362Z,97421.36
2019-03-13T17:19:20.586Z,97419.94
2019-03-13T17:21:50.156Z,97423.50
2019-03-13T17:24:20.559Z,97428.80
2019-03-13T17:26:50.239Z,97433.52
2019-03-13T17:29:19.473Z,97428.29
2019-03-13T17:31:48.715Z,97444.45
2019-03-13T17:34:18.778Z,97438.50
2019-03-13T17:36:48.045Z,97429.44
2019-03-13T17:39:19.568Z,97439.72
2019-03-13T17:41:48.810Z,97433.91
2019-03-13T17:44:20.469Z,97437.80
2019-03-13T17:46:50.200Z,97436.88
2019-03-13T17:49:21.596Z,97441.50
2019-03-13T17:51:50.864Z,97440.52
2019-03-13T17:54:20.858Z,97437.27
2019-03-13T17:56:50.126Z,97440.20
2019-03-13T17:59:20.418Z,97432.31
2019-03-13T18:01:49.624Z,97442.02
2019-03-13T18:04:18.860Z,97445.50
2019-03-13T18:06:50.185Z,97435.73
2019-03-13T18:09:21.349Z,97426.95
2019-03-13T18:11:50.895Z,97446.04
2019-03-13T18:14:20.174Z,97438.11
2019-03-13T18:16:49.433Z,97444.11
2019-03-13T18:19:18.694Z,97431.66
2019-03-13T18:21:48.304Z,97443.84
2019-03-13T18:24:21.752Z,97446.27
2019-03-13T18:26:50.990Z,97442.06
2019-03-13T18:29:20.228Z,97455.25
2019-03-13T18:31:49.862Z,97446.48
2019-03-13T18:34:23.486Z,97446.04
2019-03-13T18:36:56.831Z,97435.17
2019-03-13T18:39:25.903Z,97438.72
2019-03-13T18:41:55.122Z,97441.03
2019-03-13T18:44:24.365Z,97439.10
2019-03-13T18:46:53.601Z,97444.52
2019-03-13T18:49:22.876Z,97438.11
2019-03-13T18:51:52.092Z,97432.92
2019-03-13T18:54:21.326Z,97438.50
2019-03-13T18:56:50.557Z,97437.71
2019-03-13T18:59:19.969Z,97438.72
2019-03-13T19:01:49.238Z,97442.30
2019-03-13T19:04:18.888Z,97449.64
2019-03-13T19:06:48.134Z,97429.19
2019-03-13T19:09:17.385Z,97436.55
2019-03-13T19:11:47.929Z,97427.07
2019-03-13T19:14:18.334Z,97429.72
2019-03-13T19:16:47.900Z,97429.45
2019-03-13T19:19:18.216Z,97441.69
2019-03-13T19:21:47.466Z,97439.08
2019-03-13T19:24:16.719Z,97456.17
2019-03-13T19:26:48.030Z,97443.83
2019-03-13T19:29:19.935Z,97445.98
2019-03-13T19:31:49.948Z,97441.83
2019-03-13T19:34:19.202Z,97449.28
2019-03-13T19:36:51.111Z,97438.70
2019-03-13T19:39:22.576Z,97449.78
2019-03-13T19:41:52.090Z,97433.69
2019-03-13T19:44:23.378Z,97440.45
2019-03-13T19:46:52.606Z,97431.41
2019-03-13T19:49:24.710Z,97434.55
2019-03-13T19:51:56.818Z,97435.27
2019-03-13T19:54:29.087Z,97437.02
2019-03-13T19:57:00.704Z,97435.70
2019-03-13T19:59:29.987Z,97443.31
2019-03-13T20:01:59.230Z,97443.67
2019-03-13T20:04:30.593Z,97460.27
2019-03-13T20:07:02.543Z,97439.60
2019-03-13T20:09:32.987Z,97449.14
2019-03-13T20:12:02.202Z,97441.60
2019-03-13T20:14:31.848Z,97446.72
2019-03-13T20:17:01.378Z,97440.03
2019-03-13T20:19:30.978Z,97437.28
2019-03-13T20:22:00.969Z,97439.03
2019-03-13T20:24:30.369Z,97445.96
2019-03-13T20:27:02.614Z,97449.43
2019-03-13T20:29:31.872Z,97450.54
2019-03-13T20:32:01.416Z,97454.29
2019-03-13T20:34:31.055Z,97447.78
2019-03-13T20:37:03.312Z,97462.73
2019-03-13T20:39:34.095Z,97450.00
2019-03-13T20:42:03.349Z,97451.72
2019-03-13T20:44:34.890Z,97453.25
2019-03-13T20:47:04.447Z,97448.04
2019-03-13T20:49:33.802Z,97457.62
2019-03-13T20:52:03.096Z,97447.58
2019-03-13T20:54:32.341Z,97452.14
2019-03-13T20:57:01.576Z,97464.27
2019-03-13T20:59:32.855Z,97443.81
2019-03-13T21:02:03.927Z,97440.78
2019-03-13T21:04:33.582Z,97442.92
2019-03-13T21:07:02.817Z,97437.13
2019-03-13T21:09:33.164Z,97443.03
2019-03-13T21:12:04.629Z,97471.10
2019-03-13T21:14:35.890Z,97443.88
2019-03-13T21:17:05.206Z,97446.41
2019-03-13T21:19:34.873Z,97446.83
2019-03-13T21:22:04.673Z,97442.67
2019-03-13T21:24:34.953Z,97447.46
2019-03-13T21:27:06.587Z,97443.20
2019-03-13T21:29:35.929Z,97435.56
2019-03-13T21:32:05.149Z,97435.78
2019-03-13T21:34:36.319Z,97428.16
2019-03-13T21:37:05.882Z,97432.05
2019-03-13T21:39:36.389Z,97431.73
2019-03-13T21:42:05.631Z,97424.62
2019-03-13T21:44:36.303Z,97447.37
2019-03-13T21:47:05.918Z,97425.92
2019-03-13T21:49:35.187Z,97411.89
2019-03-13T21:52:04.829Z,97430.18
2019-03-13T21:54:34.059Z,97426.00
2019-03-13T21:57:04.549Z,97429.47
2019-03-13T21:59:36.232Z,97442.55
2019-03-13T22:02:05.812Z,97444.62
2019-03-13T22:04:35.745Z,97441.81
2019-03-13T22:07:05.279Z,97424.87
2019-03-13T22:09:34.797Z,97445.88
2019-03-13T22:12:05.288Z,97452.09
2019-03-13T22:14:34.570Z,97433.81
2019-03-13T22:17:03.827Z,97447.31
2019-03-13T22:19:33.518Z,97441.04
2019-03-13T22:22:04.202Z,97426.52
2019-03-13T22:24:33.973Z,97429.45
2019-03-13T22:27:03.216Z,97417.77
2019-03-13T22:29:32.722Z,97429.66
2019-03-13T22:32:02.223Z,97423.13
2019-03-13T22:34:36.267Z,97430.46
2019-03-13T22:37:05.840Z,97430.36
2019-03-13T22:39:35.191Z,97429.22
2019-03-13T22:42:07.540Z,97426.80
2019-03-13T22:44:37.350Z,97427.30
2019-03-13T22:47:06.581Z,97423.13
2019-03-13T22:49:35.824Z,97427.70
2019-03-13T22:52:05.077Z,97422.55
2019-03-13T22:54:34.312Z,97423.26
2019-03-13T22:57:03.990Z,97419.49
2019-03-13T22:59:34.335Z,97411.88
2019-03-13T23:02:04.805Z,97414.52
2019-03-13T23:04:36.142Z,97415.03
2019-03-13T23:07:05.498Z,97414.71
2019-03-13T23:09:34.808Z,97420.70
2019-03-13T23:12:04.071Z,97414.11
2019-03-13T23:14:33.712Z,97414.02
2019-03-13T23:17:02.965Z,97411.56
2019-03-13T23:19:32.178Z,97410.24
2019-03-13T23:22:01.457Z,97412.29
2019-03-13T23:24:31.029Z,97403.74
2019-03-13T23:27:00.328Z,97407.61
2019-03-13T23:29:29.568Z,97409.23
2019-03-13T23:31:58.796Z,97414.17
2019-03-13T23:34:28.384Z,97408.69
2019-03-13T23:36:57.635Z,97412.88
2019-03-13T23:39:26.895Z,97407.77
2019-03-13T23:41:56.127Z,97412.53
2019-03-13T23:44:25.718Z,97410.51
2019-03-13T23:46:57.734Z,97413.25
2019-03-13T23:49:28.785Z,97406.44
2019-03-13T23:51:58.012Z,97422.38
2019-03-13T23:54:28.982Z,97417.48
2019-03-13T23:56:59.361Z,97415.95
2019-03-13T23:59:28.864Z,97415.75
